sensor_id;sensor_type;location;lat;lon;timestamp;P1;durP1;ratioP1;P2;durP2;ratioP2
48199;SDS011;33990;44.602;10.976;2023-01-10T00:00:40;6.47;;;4.40;;
48199;SDS011;33990;44.602;10.976;2023-01-10T00:03:08;9.50;;;4.88;;
48199;SDS011;33990;44.602;10.976;2023-01-10T00:05:37;7.57;;;4.95;;
48199;SDS011;33990;44.602;10.976;2023-01-10T00:08:06;8.40;;;4.88;;
48199;SDS011;33990;44.602;10.976;2023-01-10T00:10:34;7.00;;;4.63;;
48199;SDS011;33990;44.602;10.976;2023-01-10T00:13:02;6.80;;;4.35;;
48199;SDS011;33990;44.602;10.976;2023-01-10T00:15:49;5.88;;;4.95;;
48199;SDS011;33990;44.602;10.976;2023-01-10T00:18:18;8.13;;;4.47;;
48199;SDS011;33990;44.602;10.976;2023-01-10T00:20:46;5.78;;;4.15;;
48199;SDS011;33990;44.602;10.976;2023-01-10T00:23:15;6.05;;;4.88;;
48199;SDS011;33990;44.602;10.976;2023-01-10T00:25:44;6.53;;;4.60;;
48199;SDS011;33990;44.602;10.976;2023-01-10T00:28:12;6.15;;;4.10;;
48199;SDS011;33990;44.602;10.976;2023-01-10T00:30:47;6.18;;;4.45;;
48199;SDS011;33990;44.602;10.976;2023-01-10T00:33:20;6.30;;;4.60;;
48199;SDS011;33990;44.602;10.976;2023-01-10T00:35:48;7.78;;;4.65;;
48199;SDS011;33990;44.602;10.976;2023-01-10T00:38:15;6.20;;;4.43;;
48199;SDS011;33990;44.602;10.976;2023-01-10T00:40:44;4.88;;;3.88;;
48199;SDS011;33990;44.602;10.976;2023-01-10T00:43:12;5.57;;;4.50;;
48199;SDS011;33990;44.602;10.976;2023-01-10T00:45:58;6.88;;;4.85;;
48199;SDS011;33990;44.602;10.976;2023-01-10T00:48:26;5.35;;;4.05;;
48199;SDS011;33990;44.602;10.976;2023-01-10T00:50:53;6.32;;;4.35;;
48199;SDS011;33990;44.602;10.976;2023-01-10T00:53:21;6.50;;;4.47;;
48199;SDS011;33990;44.602;10.976;2023-01-10T00:55:48;4.97;;;3.92;;
48199;SDS011;33990;44.602;10.976;2023-01-10T00:58:16;6.20;;;3.65;;
48199;SDS011;33990;44.602;10.976;2023-01-10T01:00:43;5.35;;;3.97;;
48199;SDS011;33990;44.602;10.976;2023-01-10T01:03:17;9.38;;;4.15;;
48199;SDS011;33990;44.602;10.976;2023-01-10T01:05:46;6.82;;;5.05;;
48199;SDS011;33990;44.602;10.976;2023-01-10T01:08:15;4.57;;;3.63;;
48199;SDS011;33990;44.602;10.976;2023-01-10T01:10:43;6.50;;;4.40;;
48199;SDS011;33990;44.602;10.976;2023-01-10T01:15:46;6.90;;;4.20;;
48199;SDS011;33990;44.602;10.976;2023-01-10T01:18:17;4.78;;;3.65;;
48199;SDS011;33990;44.602;10.976;2023-01-10T01:20:46;6.35;;;3.38;;
48199;SDS011;33990;44.602;10.976;2023-01-10T01:23:19;6.13;;;3.78;;
48199;SDS011;33990;44.602;10.976;2023-01-10T01:25:48;6.10;;;3.92;;
48199;SDS011;33990;44.602;10.976;2023-01-10T01:28:17;7.03;;;4.00;;
48199;SDS011;33990;44.602;10.976;2023-01-10T01:30:45;4.68;;;3.20;;
48199;SDS011;33990;44.602;10.976;2023-01-10T01:33:12;4.97;;;3.50;;
48199;SDS011;33990;44.602;10.976;2023-01-10T01:35:42;5.13;;;3.83;;
48199;SDS011;33990;44.602;10.976;2023-01-10T01:38:10;4.63;;;3.38;;
48199;SDS011;33990;44.602;10.976;2023-01-10T01:40:38;5.47;;;3.72;;
48199;SDS011;33990;44.602;10.976;2023-01-10T01:43:18;5.65;;;3.72;;
48199;SDS011;33990;44.602;10.976;2023-01-10T01:45:49;5.95;;;3.38;;
48199;SDS011;33990;44.602;10.976;2023-01-10T01:51:07;4.78;;;2.90;;
48199;SDS011;33990;44.602;10.976;2023-01-10T01:56:12;5.18;;;3.55;;
48199;SDS011;33990;44.602;10.976;2023-01-10T01:59:22;4.20;;;3.50;;
48199;SDS011;33990;44.602;10.976;2023-01-10T02:01:55;5.03;;;3.58;;
48199;SDS011;33990;44.602;10.976;2023-01-10T02:04:27;5.03;;;3.42;;
48199;SDS011;33990;44.602;10.976;2023-01-10T02:06:58;4.65;;;3.30;;
48199;SDS011;33990;44.602;10.976;2023-01-10T02:09:33;4.47;;;2.92;;
48199;SDS011;33990;44.602;10.976;2023-01-10T02:12:06;5.88;;;3.50;;
48199;SDS011;33990;44.602;10.976;2023-01-10T02:14:35;5.05;;;3.38;;
48199;SDS011;33990;44.602;10.976;2023-01-10T02:17:04;4.97;;;3.33;;
48199;SDS011;33990;44.602;10.976;2023-01-10T02:28:46;4.30;;;3.22;;
48199;SDS011;33990;44.602;10.976;2023-01-10T02:45:57;3.93;;;2.73;;
48199;SDS011;33990;44.602;10.976;2023-01-10T02:48:29;5.28;;;3.20;;
48199;SDS011;33990;44.602;10.976;2023-01-10T02:53:59;7.57;;;3.28;;
48199;SDS011;33990;44.602;10.976;2023-01-10T03:02:35;3.83;;;2.65;;
48199;SDS011;33990;44.602;10.976;2023-01-10T03:16:16;3.88;;;2.50;;
48199;SDS011;33990;44.602;10.976;2023-01-10T03:18:47;3.53;;;2.53;;
48199;SDS011;33990;44.602;10.976;2023-01-10T03:21:22;3.60;;;2.60;;
48199;SDS011;33990;44.602;10.976;2023-01-10T03:23:52;4.80;;;2.45;;
48199;SDS011;33990;44.602;10.976;2023-01-10T03:27:13;3.85;;;2.60;;
48199;SDS011;33990;44.602;10.976;2023-01-10T03:29:17;3.30;;;2.13;;
48199;SDS011;33990;44.602;10.976;2023-01-10T03:31:52;3.72;;;2.38;;
48199;SDS011;33990;44.602;10.976;2023-01-10T03:34:23;3.93;;;2.17;;
48199;SDS011;33990;44.602;10.976;2023-01-10T03:36:56;3.92;;;2.33;;
48199;SDS011;33990;44.602;10.976;2023-01-10T03:42:28;4.32;;;2.25;;
48199;SDS011;33990;44.602;10.976;2023-01-10T03:45:28;3.20;;;2.13;;
48199;SDS011;33990;44.602;10.976;2023-01-10T03:48:05;4.00;;;2.28;;
48199;SDS011;33990;44.602;10.976;2023-01-10T03:50:34;3.35;;;2.30;;
48199;SDS011;33990;44.602;10.976;2023-01-10T03:53:04;2.95;;;2.05;;
48199;SDS011;33990;44.602;10.976;2023-01-10T03:55:31;4.55;;;2.25;;
48199;SDS011;33990;44.602;10.976;2023-01-10T03:58:01;4.60;;;2.00;;
48199;SDS011;33990;44.602;10.976;2023-01-10T04:00:28;3.67;;;2.30;;
48199;SDS011;33990;44.602;10.976;2023-01-10T04:02:56;3.28;;;1.90;;
48199;SDS011;33990;44.602;10.976;2023-01-10T04:05:25;3.05;;;2.00;;
48199;SDS011;33990;44.602;10.976;2023-01-10T04:07:52;3.20;;;1.95;;
48199;SDS011;33990;44.602;10.976;2023-01-10T04:10:19;3.33;;;2.03;;
48199;SDS011;33990;44.602;10.976;2023-01-10T04:12:47;3.08;;;2.00;;
48199;SDS011;33990;44.602;10.976;2023-01-10T04:15:14;4.80;;;2.00;;
48199;SDS011;33990;44.602;10.976;2023-01-10T04:17:41;3.38;;;2.05;;
48199;SDS011;33990;44.602;10.976;2023-01-10T04:20:09;3.50;;;1.80;;
48199;SDS011;33990;44.602;10.976;2023-01-10T04:22:37;2.50;;;1.55;;
48199;SDS011;33990;44.602;10.976;2023-01-10T04:25:04;3.88;;;1.80;;
48199;SDS011;33990;44.602;10.976;2023-01-10T04:27:32;3.35;;;2.40;;
48199;SDS011;33990;44.602;10.976;2023-01-10T04:29:59;3.40;;;2.10;;
48199;SDS011;33990;44.602;10.976;2023-01-10T04:32:27;3.60;;;2.28;;
48199;SDS011;33990;44.602;10.976;2023-01-10T04:34:54;2.85;;;1.90;;
48199;SDS011;33990;44.602;10.976;2023-01-10T04:37:21;3.17;;;1.83;;
48199;SDS011;33990;44.602;10.976;2023-01-10T04:39:50;3.28;;;1.73;;
48199;SDS011;33990;44.602;10.976;2023-01-10T04:42:17;2.67;;;1.80;;
48199;SDS011;33990;44.602;10.976;2023-01-10T04:44:45;2.63;;;1.52;;
48199;SDS011;33990;44.602;10.976;2023-01-10T04:47:12;2.83;;;1.70;;
48199;SDS011;33990;44.602;10.976;2023-01-10T04:49:39;4.25;;;2.05;;
48199;SDS011;33990;44.602;10.976;2023-01-10T04:52:07;2.42;;;1.48;;
48199;SDS011;33990;44.602;10.976;2023-01-10T04:54:34;3.22;;;1.75;;
48199;SDS011;33990;44.602;10.976;2023-01-10T04:57:01;2.78;;;2.08;;
48199;SDS011;33990;44.602;10.976;2023-01-10T04:59:29;3.10;;;1.80;;
48199;SDS011;33990;44.602;10.976;2023-01-10T05:01:56;3.15;;;1.80;;
48199;SDS011;33990;44.602;10.976;2023-01-10T05:04:24;4.40;;;1.95;;
48199;SDS011;33990;44.602;10.976;2023-01-10T05:06:51;2.42;;;1.35;;
48199;SDS011;33990;44.602;10.976;2023-01-10T05:09:18;2.65;;;1.30;;
48199;SDS011;33990;44.602;10.976;2023-01-10T05:11:45;3.38;;;1.45;;
48199;SDS011;33990;44.602;10.976;2023-01-10T05:14:13;3.33;;;1.75;;
48199;SDS011;33990;44.602;10.976;2023-01-10T05:16:40;2.95;;;1.70;;
48199;SDS011;33990;44.602;10.976;2023-01-10T05:19:07;2.30;;;1.38;;
48199;SDS011;33990;44.602;10.976;2023-01-10T05:21:35;2.42;;;1.35;;
48199;SDS011;33990;44.602;10.976;2023-01-10T05:24:02;3.65;;;2.03;;
48199;SDS011;33990;44.602;10.976;2023-01-10T05:26:30;3.13;;;1.90;;
48199;SDS011;33990;44.602;10.976;2023-01-10T05:28:57;3.00;;;1.50;;
48199;SDS011;33990;44.602;10.976;2023-01-10T05:31:24;3.25;;;1.58;;
48199;SDS011;33990;44.602;10.976;2023-01-10T05:33:52;3.50;;;1.65;;
48199;SDS011;33990;44.602;10.976;2023-01-10T05:36:19;3.47;;;1.40;;
48199;SDS011;33990;44.602;10.976;2023-01-10T05:38:46;3.22;;;1.70;;
48199;SDS011;33990;44.602;10.976;2023-01-10T05:41:14;3.80;;;1.55;;
48199;SDS011;33990;44.602;10.976;2023-01-10T05:43:41;2.33;;;1.40;;
48199;SDS011;33990;44.602;10.976;2023-01-10T05:46:08;2.75;;;1.55;;
48199;SDS011;33990;44.602;10.976;2023-01-10T05:48:36;2.83;;;1.70;;
48199;SDS011;33990;44.602;10.976;2023-01-10T05:51:03;3.35;;;1.65;;
48199;SDS011;33990;44.602;10.976;2023-01-10T05:53:31;3.50;;;1.40;;
48199;SDS011;33990;44.602;10.976;2023-01-10T05:55:59;1.80;;;1.10;;
48199;SDS011;33990;44.602;10.976;2023-01-10T05:58:27;3.03;;;1.67;;
48199;SDS011;33990;44.602;10.976;2023-01-10T06:00:55;3.13;;;1.38;;
48199;SDS011;33990;44.602;10.976;2023-01-10T06:03:24;3.10;;;1.50;;
48199;SDS011;33990;44.602;10.976;2023-01-10T06:05:53;3.08;;;1.63;;
48199;SDS011;33990;44.602;10.976;2023-01-10T06:08:21;2.45;;;1.50;;
48199;SDS011;33990;44.602;10.976;2023-01-10T06:10:49;3.60;;;1.58;;
48199;SDS011;33990;44.602;10.976;2023-01-10T06:13:17;6.40;;;1.70;;
48199;SDS011;33990;44.602;10.976;2023-01-10T06:15:44;3.00;;;1.48;;
48199;SDS011;33990;44.602;10.976;2023-01-10T06:18:11;2.92;;;1.58;;
48199;SDS011;33990;44.602;10.976;2023-01-10T06:20:39;2.83;;;1.50;;
48199;SDS011;33990;44.602;10.976;2023-01-10T06:23:07;2.95;;;1.50;;
48199;SDS011;33990;44.602;10.976;2023-01-10T06:25:35;3.55;;;2.20;;
48199;SDS011;33990;44.602;10.976;2023-01-10T06:28:10;2.78;;;1.65;;
48199;SDS011;33990;44.602;10.976;2023-01-10T06:30:39;3.25;;;1.60;;
48199;SDS011;33990;44.602;10.976;2023-01-10T06:33:08;4.38;;;1.67;;
48199;SDS011;33990;44.602;10.976;2023-01-10T06:35:37;3.45;;;1.48;;
48199;SDS011;33990;44.602;10.976;2023-01-10T06:38:05;2.33;;;1.38;;
48199;SDS011;33990;44.602;10.976;2023-01-10T06:40:33;3.22;;;1.67;;
48199;SDS011;33990;44.602;10.976;2023-01-10T06:43:00;2.63;;;1.13;;
48199;SDS011;33990;44.602;10.976;2023-01-10T06:45:27;3.60;;;1.60;;
48199;SDS011;33990;44.602;10.976;2023-01-10T06:47:54;2.60;;;1.58;;
48199;SDS011;33990;44.602;10.976;2023-01-10T06:50:22;4.43;;;1.77;;
48199;SDS011;33990;44.602;10.976;2023-01-10T06:52:59;4.03;;;1.40;;
48199;SDS011;33990;44.602;10.976;2023-01-10T06:55:28;2.55;;;1.52;;
48199;SDS011;33990;44.602;10.976;2023-01-10T06:57:56;2.72;;;1.60;;
48199;SDS011;33990;44.602;10.976;2023-01-10T07:00:28;2.70;;;1.67;;
48199;SDS011;33990;44.602;10.976;2023-01-10T07:02:57;2.25;;;1.20;;
48199;SDS011;33990;44.602;10.976;2023-01-10T07:05:25;2.75;;;1.60;;
48199;SDS011;33990;44.602;10.976;2023-01-10T07:07:54;2.92;;;1.73;;
48199;SDS011;33990;44.602;10.976;2023-01-10T07:10:23;3.17;;;1.80;;
48199;SDS011;33990;44.602;10.976;2023-01-10T07:12:50;3.97;;;1.90;;
48199;SDS011;33990;44.602;10.976;2023-01-10T07:15:21;2.25;;;1.20;;
48199;SDS011;33990;44.602;10.976;2023-01-10T07:17:48;3.00;;;1.30;;
48199;SDS011;33990;44.602;10.976;2023-01-10T07:20:16;2.67;;;1.40;;
48199;SDS011;33990;44.602;10.976;2023-01-10T07:22:51;2.72;;;1.33;;
48199;SDS011;33990;44.602;10.976;2023-01-10T07:25:21;2.72;;;1.30;;
48199;SDS011;33990;44.602;10.976;2023-01-10T07:27:48;3.10;;;1.52;;
48199;SDS011;33990;44.602;10.976;2023-01-10T07:30:19;2.53;;;1.33;;
48199;SDS011;33990;44.602;10.976;2023-01-10T07:32:55;2.28;;;1.27;;
48199;SDS011;33990;44.602;10.976;2023-01-10T07:35:23;2.80;;;1.65;;
48199;SDS011;33990;44.602;10.976;2023-01-10T07:37:52;2.40;;;1.25;;
48199;SDS011;33990;44.602;10.976;2023-01-10T07:40:20;2.58;;;1.33;;
48199;SDS011;33990;44.602;10.976;2023-01-10T07:42:47;6.10;;;1.70;;
48199;SDS011;33990;44.602;10.976;2023-01-10T07:45:14;2.70;;;1.30;;
48199;SDS011;33990;44.602;10.976;2023-01-10T07:47:41;2.63;;;1.13;;
48199;SDS011;33990;44.602;10.976;2023-01-10T07:50:11;2.20;;;1.17;;
48199;SDS011;33990;44.602;10.976;2023-01-10T07:52:38;2.92;;;1.60;;
48199;SDS011;33990;44.602;10.976;2023-01-10T07:55:06;3.38;;;1.33;;
48199;SDS011;33990;44.602;10.976;2023-01-10T07:57:33;3.35;;;1.30;;
48199;SDS011;33990;44.602;10.976;2023-01-10T08:00:01;2.88;;;1.27;;
48199;SDS011;33990;44.602;10.976;2023-01-10T08:02:30;3.95;;;1.38;;
48199;SDS011;33990;44.602;10.976;2023-01-10T08:04:58;3.17;;;1.40;;
48199;SDS011;33990;44.602;10.976;2023-01-10T08:07:27;3.67;;;1.55;;
48199;SDS011;33990;44.602;10.976;2023-01-10T08:09:55;4.28;;;1.30;;
48199;SDS011;33990;44.602;10.976;2023-01-10T08:12:22;4.38;;;1.73;;
48199;SDS011;33990;44.602;10.976;2023-01-10T08:14:51;4.05;;;1.23;;
48199;SDS011;33990;44.602;10.976;2023-01-10T08:17:18;4.38;;;1.40;;
48199;SDS011;33990;44.602;10.976;2023-01-10T08:19:46;2.72;;;1.05;;
48199;SDS011;33990;44.602;10.976;2023-01-10T08:22:13;4.40;;;1.23;;
48199;SDS011;33990;44.602;10.976;2023-01-10T08:24:40;9.98;;;1.10;;
48199;SDS011;33990;44.602;10.976;2023-01-10T08:27:08;5.72;;;1.20;;
48199;SDS011;33990;44.602;10.976;2023-01-10T08:29:35;2.97;;;1.10;;
48199;SDS011;33990;44.602;10.976;2023-01-10T08:32:02;3.20;;;1.55;;
48199;SDS011;33990;44.602;10.976;2023-01-10T08:34:30;4.50;;;1.63;;
48199;SDS011;33990;44.602;10.976;2023-01-10T08:36:57;2.22;;;1.25;;
48199;SDS011;33990;44.602;10.976;2023-01-10T08:39:24;3.35;;;1.30;;
48199;SDS011;33990;44.602;10.976;2023-01-10T08:41:54;6.65;;;1.48;;
48199;SDS011;33990;44.602;10.976;2023-01-10T08:44:21;2.97;;;0.98;;
48199;SDS011;33990;44.602;10.976;2023-01-10T08:46:49;6.57;;;1.20;;
48199;SDS011;33990;44.602;10.976;2023-01-10T08:49:16;5.55;;;1.23;;
48199;SDS011;33990;44.602;10.976;2023-01-10T08:51:45;6.72;;;1.45;;
48199;SDS011;33990;44.602;10.976;2023-01-10T08:54:12;4.13;;;1.27;;
48199;SDS011;33990;44.602;10.976;2023-01-10T08:56:39;8.98;;;1.55;;
48199;SDS011;33990;44.602;10.976;2023-01-10T08:59:07;8.10;;;1.55;;
48199;SDS011;33990;44.602;10.976;2023-01-10T09:01:34;3.25;;;1.02;;
48199;SDS011;33990;44.602;10.976;2023-01-10T09:04:02;3.72;;;0.95;;
48199;SDS011;33990;44.602;10.976;2023-01-10T09:06:31;3.53;;;1.17;;
48199;SDS011;33990;44.602;10.976;2023-01-10T09:08:58;4.47;;;1.20;;
48199;SDS011;33990;44.602;10.976;2023-01-10T09:11:25;3.70;;;1.20;;
48199;SDS011;33990;44.602;10.976;2023-01-10T09:13:53;1.88;;;0.70;;
48199;SDS011;33990;44.602;10.976;2023-01-10T09:16:20;1.98;;;0.70;;
48199;SDS011;33990;44.602;10.976;2023-01-10T09:18:49;1.98;;;1.00;;
48199;SDS011;33990;44.602;10.976;2023-01-10T09:21:17;2.38;;;1.23;;
48199;SDS011;33990;44.602;10.976;2023-01-10T09:23:44;1.38;;;0.73;;
48199;SDS011;33990;44.602;10.976;2023-01-10T09:26:11;2.20;;;0.90;;
48199;SDS011;33990;44.602;10.976;2023-01-10T09:28:39;3.13;;;1.10;;
48199;SDS011;33990;44.602;10.976;2023-01-10T09:31:06;1.90;;;0.90;;
48199;SDS011;33990;44.602;10.976;2023-01-10T09:33:34;1.70;;;0.90;;
48199;SDS011;33990;44.602;10.976;2023-01-10T09:36:12;3.92;;;1.08;;
48199;SDS011;33990;44.602;10.976;2023-01-10T09:38:41;2.95;;;0.93;;
48199;SDS011;33990;44.602;10.976;2023-01-10T09:44:14;1.70;;;0.68;;
48199;SDS011;33990;44.602;10.976;2023-01-10T09:52:22;3.08;;;1.10;;
48199;SDS011;33990;44.602;10.976;2023-01-10T09:54:54;3.70;;;1.10;;
48199;SDS011;33990;44.602;10.976;2023-01-10T09:57:24;2.13;;;1.00;;
48199;SDS011;33990;44.602;10.976;2023-01-10T09:59:52;2.58;;;1.10;;
48199;SDS011;33990;44.602;10.976;2023-01-10T10:02:29;1.50;;;0.63;;
48199;SDS011;33990;44.602;10.976;2023-01-10T10:08:03;2.00;;;0.80;;
48199;SDS011;33990;44.602;10.976;2023-01-10T10:10:40;3.13;;;1.00;;
48199;SDS011;33990;44.602;10.976;2023-01-10T10:13:24;2.67;;;0.88;;
48199;SDS011;33990;44.602;10.976;2023-01-10T10:16:05;1.77;;;0.70;;
48199;SDS011;33990;44.602;10.976;2023-01-10T10:18:56;1.60;;;0.70;;
48199;SDS011;33990;44.602;10.976;2023-01-10T10:21:27;3.83;;;1.05;;
48199;SDS011;33990;44.602;10.976;2023-01-10T10:25:11;3.22;;;0.88;;
48199;SDS011;33990;44.602;10.976;2023-01-10T10:30:34;2.67;;;0.70;;
48199;SDS011;33990;44.602;10.976;2023-01-10T10:36:03;2.08;;;0.63;;
48199;SDS011;33990;44.602;10.976;2023-01-10T10:38:42;1.48;;;0.40;;
48199;SDS011;33990;44.602;10.976;2023-01-10T10:44:00;2.00;;;0.60;;
48199;SDS011;33990;44.602;10.976;2023-01-10T10:46:32;1.73;;;0.60;;
48199;SDS011;33990;44.602;10.976;2023-01-10T10:49:00;1.40;;;0.68;;
48199;SDS011;33990;44.602;10.976;2023-01-10T10:51:41;5.00;;;0.70;;
48199;SDS011;33990;44.602;10.976;2023-01-10T10:54:14;2.15;;;0.75;;
48199;SDS011;33990;44.602;10.976;2023-01-10T10:56:42;2.40;;;0.55;;
48199;SDS011;33990;44.602;10.976;2023-01-10T10:59:12;1.80;;;0.80;;
48199;SDS011;33990;44.602;10.976;2023-01-10T11:01:44;2.88;;;0.73;;
48199;SDS011;33990;44.602;10.976;2023-01-10T11:04:16;2.45;;;0.40;;
48199;SDS011;33990;44.602;10.976;2023-01-10T11:06:47;2.25;;;0.52;;
48199;SDS011;33990;44.602;10.976;2023-01-10T11:09:18;1.80;;;0.65;;
48199;SDS011;33990;44.602;10.976;2023-01-10T11:11:59;1.77;;;0.63;;
48199;SDS011;33990;44.602;10.976;2023-01-10T11:14:40;3.20;;;0.55;;
48199;SDS011;33990;44.602;10.976;2023-01-10T11:19:59;1.27;;;0.60;;
48199;SDS011;33990;44.602;10.976;2023-01-10T11:22:30;2.50;;;0.60;;
48199;SDS011;33990;44.602;10.976;2023-01-10T11:25:04;1.08;;;0.45;;
48199;SDS011;33990;44.602;10.976;2023-01-10T11:27:47;1.27;;;0.52;;
48199;SDS011;33990;44.602;10.976;2023-01-10T11:30:27;2.60;;;0.52;;
48199;SDS011;33990;44.602;10.976;2023-01-10T11:32:58;2.80;;;0.47;;
48199;SDS011;33990;44.602;10.976;2023-01-10T11:35:29;5.85;;;0.80;;
48199;SDS011;33990;44.602;10.976;2023-01-10T11:40:32;3.47;;;0.65;;
48199;SDS011;33990;44.602;10.976;2023-01-10T11:45:54;1.35;;;0.52;;
48199;SDS011;33990;44.602;10.976;2023-01-10T11:48:44;1.65;;;0.60;;
48199;SDS011;33990;44.602;10.976;2023-01-10T11:51:54;2.65;;;0.50;;
48199;SDS011;33990;44.602;10.976;2023-01-10T11:54:25;4.95;;;0.70;;
48199;SDS011;33990;44.602;10.976;2023-01-10T11:56:59;1.42;;;0.45;;
48199;SDS011;33990;44.602;10.976;2023-01-10T11:59:30;1.48;;;0.52;;
48199;SDS011;33990;44.602;10.976;2023-01-10T12:02:13;1.42;;;0.63;;
48199;SDS011;33990;44.602;10.976;2023-01-10T12:04:48;1.98;;;0.52;;
48199;SDS011;33990;44.602;10.976;2023-01-10T12:07:18;1.80;;;0.55;;
48199;SDS011;33990;44.602;10.976;2023-01-10T12:12:29;2.03;;;0.52;;
48199;SDS011;33990;44.602;10.976;2023-01-10T12:15:19;1.77;;;0.60;;
48199;SDS011;33990;44.602;10.976;2023-01-10T12:17:57;3.55;;;0.63;;
48199;SDS011;33990;44.602;10.976;2023-01-10T12:20:27;0.90;;;0.50;;
48199;SDS011;33990;44.602;10.976;2023-01-10T12:22:58;1.65;;;0.47;;
48199;SDS011;33990;44.602;10.976;2023-01-10T12:25:36;2.67;;;0.80;;
48199;SDS011;33990;44.602;10.976;2023-01-10T12:28:19;3.63;;;0.50;;
48199;SDS011;33990;44.602;10.976;2023-01-10T12:30:49;3.13;;;0.65;;
48199;SDS011;33990;44.602;10.976;2023-01-10T12:33:22;2.70;;;0.63;;
48199;SDS011;33990;44.602;10.976;2023-01-10T12:35:58;1.90;;;0.68;;
48199;SDS011;33990;44.602;10.976;2023-01-10T12:38:37;1.95;;;0.73;;
48199;SDS011;33990;44.602;10.976;2023-01-10T12:41:50;2.80;;;0.65;;
48199;SDS011;33990;44.602;10.976;2023-01-10T12:44:52;1.42;;;0.40;;
48199;SDS011;33990;44.602;10.976;2023-01-10T12:47:31;4.03;;;0.63;;
48199;SDS011;33990;44.602;10.976;2023-01-10T12:50:06;3.03;;;0.68;;
48199;SDS011;33990;44.602;10.976;2023-01-10T12:55:12;2.15;;;0.73;;
48199;SDS011;33990;44.602;10.976;2023-01-10T12:57:45;2.45;;;0.55;;
48199;SDS011;33990;44.602;10.976;2023-01-10T13:00:36;1.52;;;0.88;;
48199;SDS011;33990;44.602;10.976;2023-01-10T13:03:16;5.13;;;0.82;;
48199;SDS011;33990;44.602;10.976;2023-01-10T13:05:50;3.63;;;0.57;;
48199;SDS011;33990;44.602;10.976;2023-01-10T13:08:20;3.15;;;0.65;;
48199;SDS011;33990;44.602;10.976;2023-01-10T13:10:52;3.90;;;0.68;;
48199;SDS011;33990;44.602;10.976;2023-01-10T13:21:37;2.75;;;0.52;;
48199;SDS011;33990;44.602;10.976;2023-01-10T13:27:03;2.45;;;0.70;;
48199;SDS011;33990;44.602;10.976;2023-01-10T13:29:37;3.47;;;0.63;;
48199;SDS011;33990;44.602;10.976;2023-01-10T13:32:20;3.35;;;0.60;;
48199;SDS011;33990;44.602;10.976;2023-01-10T13:34:49;3.25;;;0.47;;
48199;SDS011;33990;44.602;10.976;2023-01-10T13:37:22;1.13;;;0.35;;
48199;SDS011;33990;44.602;10.976;2023-01-10T13:39:54;2.90;;;0.50;;
48199;SDS011;33990;44.602;10.976;2023-01-10T13:42:30;1.73;;;0.45;;
48199;SDS011;33990;44.602;10.976;2023-01-10T13:45:21;1.95;;;0.40;;
48199;SDS011;33990;44.602;10.976;2023-01-10T14:00:43;1.63;;;0.70;;
48199;SDS011;33990;44.602;10.976;2023-01-10T14:06:06;2.17;;;0.50;;
48199;SDS011;33990;44.602;10.976;2023-01-10T14:08:54;2.85;;;0.63;;
48199;SDS011;33990;44.602;10.976;2023-01-10T14:11:27;2.15;;;0.50;;
48199;SDS011;33990;44.602;10.976;2023-01-10T14:13:59;0.70;;;0.30;;
48199;SDS011;33990;44.602;10.976;2023-01-10T14:16:34;7.55;;;0.75;;
48199;SDS011;33990;44.602;10.976;2023-01-10T14:19:06;1.65;;;0.52;;
48199;SDS011;33990;44.602;10.976;2023-01-10T14:21:52;1.65;;;0.40;;
48199;SDS011;33990;44.602;10.976;2023-01-10T14:26:54;1.30;;;0.38;;
48199;SDS011;33990;44.602;10.976;2023-01-10T14:29:27;3.97;;;0.60;;
48199;SDS011;33990;44.602;10.976;2023-01-10T14:31:58;2.25;;;0.68;;
48199;SDS011;33990;44.602;10.976;2023-01-10T14:37:05;1.95;;;0.50;;
48199;SDS011;33990;44.602;10.976;2023-01-10T14:39:40;4.00;;;0.77;;
48199;SDS011;33990;44.602;10.976;2023-01-10T14:42:09;2.30;;;0.45;;
48199;SDS011;33990;44.602;10.976;2023-01-10T14:44:43;1.52;;;0.50;;
48199;SDS011;33990;44.602;10.976;2023-01-10T14:47:29;0.80;;;0.30;;
48199;SDS011;33990;44.602;10.976;2023-01-10T14:49:59;1.83;;;0.28;;
48199;SDS011;33990;44.602;10.976;2023-01-10T14:52:33;3.45;;;0.70;;
48199;SDS011;33990;44.602;10.976;2023-01-10T14:55:13;1.02;;;0.40;;
48199;SDS011;33990;44.602;10.976;2023-01-10T14:57:52;2.88;;;0.57;;
48199;SDS011;33990;44.602;10.976;2023-01-10T15:00:28;1.67;;;0.52;;
48199;SDS011;33990;44.602;10.976;2023-01-10T15:02:57;0.98;;;0.40;;
48199;SDS011;33990;44.602;10.976;2023-01-10T15:05:29;3.60;;;0.57;;
48199;SDS011;33990;44.602;10.976;2023-01-10T15:10:57;4.60;;;1.05;;
48199;SDS011;33990;44.602;10.976;2023-01-10T15:13:30;1.15;;;0.50;;
48199;SDS011;33990;44.602;10.976;2023-01-10T15:16:01;3.00;;;0.50;;
48199;SDS011;33990;44.602;10.976;2023-01-10T15:18:37;0.98;;;0.30;;
48199;SDS011;33990;44.602;10.976;2023-01-10T15:21:12;2.17;;;0.47;;
48199;SDS011;33990;44.602;10.976;2023-01-10T15:23:43;1.30;;;0.40;;
48199;SDS011;33990;44.602;10.976;2023-01-10T15:28:42;1.92;;;0.50;;
48199;SDS011;33990;44.602;10.976;2023-01-10T15:31:15;1.40;;;0.38;;
48199;SDS011;33990;44.602;10.976;2023-01-10T15:33:44;3.08;;;0.40;;
48199;SDS011;33990;44.602;10.976;2023-01-10T15:36:23;2.80;;;0.85;;
48199;SDS011;33990;44.602;10.976;2023-01-10T15:38:53;4.43;;;0.60;;
48199;SDS011;33990;44.602;10.976;2023-01-10T15:41:21;2.80;;;0.57;;
48199;SDS011;33990;44.602;10.976;2023-01-10T15:43:50;1.67;;;0.70;;
48199;SDS011;33990;44.602;10.976;2023-01-10T15:46:23;3.38;;;0.32;;
48199;SDS011;33990;44.602;10.976;2023-01-10T15:48:55;1.20;;;0.40;;
48199;SDS011;33990;44.602;10.976;2023-01-10T15:51:31;3.45;;;0.73;;
48199;SDS011;33990;44.602;10.976;2023-01-10T15:56:55;4.00;;;0.65;;
48199;SDS011;33990;44.602;10.976;2023-01-10T15:59:34;1.08;;;0.50;;
48199;SDS011;33990;44.602;10.976;2023-01-10T16:02:17;1.38;;;0.57;;
48199;SDS011;33990;44.602;10.976;2023-01-10T16:04:48;2.58;;;0.55;;
48199;SDS011;33990;44.602;10.976;2023-01-10T16:07:23;3.38;;;0.55;;
48199;SDS011;33990;44.602;10.976;2023-01-10T16:12:37;1.33;;;0.60;;
48199;SDS011;33990;44.602;10.976;2023-01-10T16:15:29;2.78;;;0.60;;
48199;SDS011;33990;44.602;10.976;2023-01-10T16:17:57;3.55;;;0.70;;
48199;SDS011;33990;44.602;10.976;2023-01-10T16:20:28;3.75;;;0.80;;
48199;SDS011;33990;44.602;10.976;2023-01-10T16:22:58;3.60;;;1.30;;
48199;SDS011;33990;44.602;10.976;2023-01-10T16:25:30;4.35;;;1.02;;
48199;SDS011;33990;44.602;10.976;2023-01-10T16:28:04;2.47;;;0.90;;
48199;SDS011;33990;44.602;10.976;2023-01-10T16:30:32;2.55;;;0.90;;
48199;SDS011;33990;44.602;10.976;2023-01-10T16:33:04;1.63;;;0.52;;
48199;SDS011;33990;44.602;10.976;2023-01-10T16:35:54;3.90;;;0.90;;
48199;SDS011;33990;44.602;10.976;2023-01-10T16:38:24;3.88;;;1.10;;
48199;SDS011;33990;44.602;10.976;2023-01-10T16:40:54;4.10;;;0.77;;
48199;SDS011;33990;44.602;10.976;2023-01-10T16:43:24;2.45;;;0.80;;
48199;SDS011;33990;44.602;10.976;2023-01-10T16:45:56;2.60;;;0.80;;
48199;SDS011;33990;44.602;10.976;2023-01-10T16:48:29;3.35;;;1.10;;
48199;SDS011;33990;44.602;10.976;2023-01-10T16:51:16;2.38;;;0.90;;
48199;SDS011;33990;44.602;10.976;2023-01-10T16:53:45;4.20;;;0.90;;
48199;SDS011;33990;44.602;10.976;2023-01-10T16:56:15;2.97;;;1.00;;
48199;SDS011;33990;44.602;10.976;2023-01-10T16:58:47;7.70;;;1.67;;
48199;SDS011;33990;44.602;10.976;2023-01-10T17:01:18;2.03;;;0.90;;
48199;SDS011;33990;44.602;10.976;2023-01-10T17:03:50;4.80;;;1.20;;
48199;SDS011;33990;44.602;10.976;2023-01-10T17:06:18;3.65;;;1.17;;
48199;SDS011;33990;44.602;10.976;2023-01-10T17:08:46;2.90;;;1.23;;
48199;SDS011;33990;44.602;10.976;2023-01-10T17:11:16;3.92;;;1.60;;